Enterprise, Kentucky
Current Conditions -  °F | °C
As of 3:50 AM on Saturday 22 Nov 2014 (Local Time) from KSYM Reporting Station
Overcast Overcast  
Wind Chill: 26°   Ceiling: 7500
Heat Index: 32°   Visibility: 10mi
Dew Point: 14°   Wind: 6mph
Humidity: 47%   Direction: 150°SSE
Pressure: 30.37"   Gusts: NA
Location:  38.3543°N, 83.1837°W
Report Text: KSYM 220850Z AUTO 15005KT 10SM OVC075 M00/M10 A3037 RMK AO2
Loading
Personal Weather Stations






























Interactive Weather Map New forecast layout! Learn more

10-Day Weather Forecast

Advertisements
Track Severe Weather on mobile